Time;durP1;ratioP1;P1;durP2;ratioP2;P2;SDS_P1;SDS_P2;PMS_P1;PMS_P2;Temp;Humidity;BMP_temperature;BMP_pressure;BME280_temperature;BME280_humidity;BME280_pressure;Samples;Min_cycle;Max_cycle;Signal;HPM_P1;HPM_P2
2022/05/27 00:00:52;;;;;;;14.18;4.18;;;14.10;99.90;;;;;;5055845;28;20127;-62
2022/05/27 00:03:18;;;;;;;16.55;4.05;;;13.70;99.90;;;;;;5055675;28;20051;-62
2022/05/27 00:05:47;;;;;;;10.95;3.35;;;14.10;99.90;;;;;;5073075;28;20032;-62
2022/05/27 00:08:13;;;;;;;10.35;3.22;;;;;;;;;;5073274;28;20044;-62
2022/05/27 00:10:39;;;;;;;12.25;4.82;;;;;;;;;;5073756;28;20507;-63
2022/05/27 00:13:06;;;;;;;14.98;4.32;;;13.80;99.90;;;;;;5072257;28;20040;-62
2022/05/27 00:15:32;;;;;;;13.50;4.90;;;;;;;;;;5073724;28;20042;-62
2022/05/27 00:17:58;;;;;;;9.43;4.22;;;13.60;99.90;;;;;;5055392;28;20087;-63
2022/05/27 00:20:24;;;;;;;16.10;4.28;;;;;;;;;;5054546;28;20494;-62
2022/05/27 00:22:49;;;;;;;10.90;4.35;;;13.70;99.90;;;;;;5055450;28;20512;-62
2022/05/27 00:25:15;;;;;;;19.92;5.22;;;13.50;99.90;;;;;;5038739;28;20036;-62
2022/05/27 00:27:41;;;;;;;17.20;4.72;;;;;;;;;;5054717;28;20526;-63
2022/05/27 00:30:09;;;;;;;15.75;4.78;;;13.30;99.90;;;;;;5072550;28;20049;-62
2022/05/27 00:32:37;;;;;;;9.80;3.92;;;;;;;;;;5037898;28;20051;-62
2022/05/27 00:35:03;;;;;;;16.63;4.38;;;;;;;;;;5073225;28;20036;-62
2022/05/27 00:37:29;;;;;;;13.05;4.20;;;;;;;;;;5054848;28;20090;-62
2022/05/27 00:39:56;;;;;;;11.07;3.33;;;;;;;;;;5054662;28;20131;-62
2022/05/27 00:42:22;;;;;;;19.35;3.85;;;;;;;;;;5054845;28;20512;-62
2022/05/27 00:44:48;;;;;;;16.48;4.80;;;;;;;;;;5055081;28;20048;-62
2022/05/27 00:47:18;;;;;;;17.17;4.28;;;13.40;99.90;;;;;;5054262;28;20428;-62
2022/05/27 00:50:11;;;;;;;13.32;3.67;;;13.20;99.90;;;;;;5054956;28;20060;-62
2022/05/27 00:52:38;;;;;;;14.48;3.63;;;;;;;;;;5051876;28;20051;-62
2022/05/27 00:55:06;;;;;;;13.25;4.30;;;;;;;;;;5072014;28;20044;-62
2022/05/27 00:57:52;;;;;;;16.02;3.88;;;;;;;;;;5055044;28;20040;-62
2022/05/27 01:00:21;;;;;;;13.43;3.60;;;;;;;;;;5037841;28;20124;-63
2022/05/27 01:02:47;;;;;;;17.45;3.42;;;;;;;;;;5037402;28;20041;-62
2022/05/27 01:05:15;;;;;;;11.68;3.33;;;;;;;;;;5037860;28;20083;-63
2022/05/27 01:07:41;;;;;;;12.50;3.58;;;;;;;;;;5072105;28;20075;-62
2022/05/27 01:10:10;;;;;;;11.07;3.10;;;;;;;;;;5054067;28;20554;-62
2022/05/27 01:12:53;;;;;;;15.98;4.13;;;;;;;;;;5054530;28;20128;-63
2022/05/27 01:15:28;;;;;;;16.95;3.47;;;;;;;;;;5037290;28;20400;-62
2022/05/27 01:17:58;;;;;;;14.68;4.05;;;;;;;;;;5054242;28;20032;-62
2022/05/27 01:20:30;;;;;;;15.43;3.10;;;;;;;;;;5054303;28;20051;-62
2022/05/27 01:23:03;;;;;;;8.63;2.88;;;;;;;;;;5071742;28;20037;-62
2022/05/27 01:25:32;;;;;;;12.20;3.80;;;;;;;;;;5054521;28;20067;-62
2022/05/27 01:28:04;;;;;;;14.95;3.45;;;;;;;;;;5037484;28;20047;-62
2022/05/27 01:30:41;;;;;;;14.00;3.25;;;;;;;;;;5053919;28;20135;-62
2022/05/27 01:33:07;;;;;;;11.20;3.38;;;;;;;;;;5053880;28;20045;-63
2022/05/27 01:35:42;;;;;;;11.10;3.17;;;;;;;;;;5072378;28;20059;-63
2022/05/27 01:38:27;;;;;;;11.40;3.08;;;;;;;;;;5053204;28;20443;-62
2022/05/27 01:40:58;;;;;;;10.50;2.88;;;;;;;;;;5054145;28;20041;-62
2022/05/27 01:43:28;;;;;;;9.80;2.97;;;;;;;;;;5052632;28;20044;-62
2022/05/27 01:46:17;;;;;;;13.02;2.63;;;12.70;99.90;;;;;;5054072;28;20119;-63
2022/05/27 01:49:07;;;;;;;7.57;2.60;;;12.60;99.90;;;;;;5037398;28;20052;-62
2022/05/27 01:51:59;;;;;;;11.20;2.60;;;12.60;99.90;;;;;;5037263;28;20389;-62
2022/05/27 01:54:47;;;;;;;10.18;2.92;;;12.80;99.90;;;;;;5026850;28;20052;-62
2022/05/27 01:57:20;;;;;;;10.18;2.88;;;12.60;99.90;;;;;;5070633;28;20099;-62
2022/05/27 02:00:03;;;;;;;14.57;2.72;;;12.50;99.90;;;;;;5054460;28;20051;-62
2022/05/27 02:02:30;;;;;;;11.10;3.25;;;12.50;99.90;;;;;;5071960;28;20044;-62
2022/05/27 02:05:22;;;;;;;8.20;2.95;;;12.60;99.90;;;;;;5052946;28;20124;-62
2022/05/27 02:08:18;;;;;;;10.93;2.45;;;12.40;99.90;;;;;;4991806;28;20063;-62
2022/05/27 02:10:54;;;;;;;16.83;3.40;;;12.40;99.90;;;;;;5053950;28;20483;-63
2022/05/27 02:13:41;;;;;;;12.95;2.35;;;12.30;99.90;;;;;;5070762;28;20044;-62
2022/05/27 02:16:12;;;;;;;10.45;2.45;;;12.20;99.90;;;;;;5071175;28;20043;-62
2022/05/27 02:18:49;;;;;;;12.88;2.67;;;12.10;99.90;;;;;;5071581;28;20045;-62
2022/05/27 02:21:27;;;;;;;8.57;2.88;;;12.20;99.90;;;;;;5053517;28;20090;-62
2022/05/27 02:24:02;;;;;;;11.05;3.20;;;11.60;99.90;;;;;;5071522;28;20482;-62
2022/05/27 02:26:33;;;;;;;9.80;2.42;;;11.80;99.90;;;;;;5052798;28;20123;-62
2022/05/27 02:29:05;;;;;;;10.30;2.53;;;11.80;99.90;;;;;;5053530;28;20211;-62
2022/05/27 02:31:35;;;;;;;9.50;2.80;;;13.20;99.90;;;;;;5037288;28;20047;-62
2022/05/27 02:37:05;;;;;;;14.60;3.20;;;;;;;;;;5071305;28;20058;-62
2022/05/27 02:39:31;;;;;;;8.90;2.55;;;;;;;;;;5071116;28;20378;-63
2022/05/27 02:42:06;;;;;;;11.52;3.22;;;;;;;;;;5036970;28;20037;-62
2022/05/27 02:44:41;;;;;;;15.25;3.72;;;;;;;;;;5071659;28;20424;-63
2022/05/27 02:47:10;;;;;;;10.30;3.30;;;;;;;;;;5052514;28;20393;-63
2022/05/27 02:49:39;;;;;;;8.93;3.00;;;;;;;;;;5053567;28;20405;-62
2022/05/27 02:52:06;;;;;;;8.75;3.60;;;;;;;;;;5036528;28;20131;-62
2022/05/27 02:54:35;;;;;;;9.00;2.50;;;;;;;;;;5071217;28;20052;-62
2022/05/27 02:57:04;;;;;;;8.82;3.25;;;;;;;;;;5040171;28;20040;-62
2022/05/27 02:59:31;;;;;;;12.10;3.17;;;;;;;;;;5074915;28;20501;-62
2022/05/27 03:02:26;;;;;;;12.63;2.90;;;;;;;;;;5056203;28;20047;-62
2022/05/27 03:05:00;;;;;;;12.25;3.33;;;;;;;;;;5036547;28;20145;-62
2022/05/27 03:07:29;;;;;;;12.77;2.72;;;;;;;;;;5056165;28;20388;-62
2022/05/27 03:10:03;;;;;;;13.48;3.47;;;;;;;;;;5040256;28;20040;-63
2022/05/27 03:12:48;;;;;;;10.80;2.88;;;;;;;;;;5074626;28;20072;-62
2022/05/27 03:15:33;;;;;;;6.07;3.17;;;;;;;;;;5055697;28;20055;-62
2022/05/27 03:18:02;;;;;;;12.10;2.92;;;;;;;;;;5039967;28;20051;-62
2022/05/27 03:20:28;;;;;;;10.48;3.25;;;;;;;;;;5056920;28;20114;-62
2022/05/27 03:22:57;;;;;;;11.40;3.17;;;;;;;;;;5055655;28;20440;-62
2022/05/27 03:25:23;;;;;;;8.27;2.60;;;;;;;;;;5074298;28;20047;-62
2022/05/27 03:27:53;;;;;;;10.20;3.10;;;;;;;;;;5056557;28;20036;-62
2022/05/27 03:30:30;;;;;;;9.55;2.63;;;;;;;;;;5055543;28;20045;-62
2022/05/27 03:33:13;;;;;;;12.45;2.85;;;;;;;;;;5040127;28;20094;-62
2022/05/27 03:35:39;;;;;;;11.60;3.17;;;;;;;;;;5055779;28;20094;-62
2022/05/27 03:38:12;;;;;;;12.20;2.75;;;;;;;;;;5055762;28;20040;-63
2022/05/27 03:40:42;;;;;;;7.68;2.70;;;;;;;;;;5056453;28;20051;-62
2022/05/27 03:43:09;;;;;;;13.80;2.80;;;;;;;;;;5038621;28;20036;-62
2022/05/27 03:45:47;;;;;;;13.82;3.15;;;;;;;;;;5039716;28;20119;-62
2022/05/27 03:48:13;;;;;;;8.02;2.60;;;;;;;;;;5055510;28;20064;-62
2022/05/27 03:50:39;;;;;;;13.15;3.80;;;;;;;;;;5073658;28;20178;-62
2022/05/27 03:53:05;;;;;;;13.13;3.38;;;;;;;;;;5038821;28;20072;-63
2022/05/27 03:55:31;;;;;;;14.88;4.40;;;;;;;;;;5074117;28;20075;-62
2022/05/27 03:57:57;;;;;;;12.88;3.33;;;;;;;;;;5072966;28;20128;-62
2022/05/27 04:00:23;;;;;;;9.98;3.20;;;;;;;;;;5055973;28;20119;-62
2022/05/27 04:02:49;;;;;;;9.32;2.75;;;;;;;;;;5056235;28;20047;-62
2022/05/27 04:05:17;;;;;;;15.48;3.78;;;;;;;;;;5055334;28;20444;-62
2022/05/27 04:07:44;;;;;;;9.80;2.45;;;;;;;;;;5038364;28;20076;-62
2022/05/27 04:10:10;;;;;;;12.48;2.80;;;;;;;;;;5038568;28;20066;-63
2022/05/27 04:12:36;;;;;;;13.68;4.30;;;;;;;;;;5072854;28;20500;-63
2022/05/27 04:15:03;;;;;;;14.80;3.17;;;;;;;;;;5073332;28;20044;-63
2022/05/27 04:17:32;;;;;;;12.35;3.17;;;;;;;;;;5073306;28;20119;-62
2022/05/27 04:20:03;;;;;;;8.35;2.40;;;;;;;;;;5054915;28;20032;-63
2022/05/27 04:22:29;;;;;;;11.98;2.53;;;;;;;;;;5073103;28;20076;-62
2022/05/27 04:24:55;;;;;;;13.52;2.72;;;;;;;;;;5038012;28;20859;-63
2022/05/27 04:27:22;;;;;;;10.82;2.60;;;;;;;;;;5055162;28;20573;-62
2022/05/27 04:29:49;;;;;;;13.10;2.63;;;;;;;;;;5055706;28;20041;-62
2022/05/27 04:32:16;;;;;;;14.30;3.05;;;;;;;;;;5036121;28;20204;-62
2022/05/27 04:34:42;;;;;;;20.52;4.95;;;;;;;;;;5054798;28;20489;-62
2022/05/27 04:37:09;;;;;;;10.15;3.03;;;;;;;;;;5071260;28;20517;-63
2022/05/27 04:39:35;;;;;;;11.98;2.80;;;;;;;;;;5072449;28;20032;-62
2022/05/27 04:42:01;;;;;;;15.00;3.80;;;;;;;;;;5071592;28;20098;-62
2022/05/27 04:44:27;;;;;;;11.55;3.53;;;;;;;;;;5055008;28;20469;-62
2022/05/27 04:46:53;;;;;;;13.52;2.85;;;;;;;;;;5070661;28;20080;-62
2022/05/27 04:52:05;;;;;;;11.57;2.90;;;;;;;;;;5054740;28;20052;-63
2022/05/27 04:54:31;;;;;;;12.70;2.72;;;;;;;;;;5054367;28;20279;-62
2022/05/27 04:56:58;;;;;;;10.77;2.90;;;;;;;;;;5072596;28;20041;-62
2022/05/27 04:59:24;;;;;;;13.10;2.97;;;;;;;;;;5054923;28;20113;-62
2022/05/27 05:01:50;;;;;;;16.25;4.03;;;;;;;;;;5053989;28;20039;-62
2022/05/27 05:04:16;;;;;;;11.77;3.70;;;;;;;;;;5037492;28;20040;-62
2022/05/27 05:06:42;;;;;;;8.38;2.55;;;;;;;;;;5072669;28;20036;-63
2022/05/27 05:09:08;;;;;;;11.18;2.50;;;;;;;;;;5071456;28;20128;-62
2022/05/27 05:11:34;;;;;;;13.02;3.13;;;;;;;;;;5072486;28;20481;-62
2022/05/27 05:14:00;;;;;;;10.65;3.00;;;;;;;;;;5054057;28;20059;-62
2022/05/27 05:16:27;;;;;;;13.07;4.30;;;;;;;;;;5054387;28;20493;-62
2022/05/27 05:18:53;;;;;;;10.25;4.32;;;;;;;;;;5054282;28;20036;-63
2022/05/27 05:21:19;;;;;;;14.90;3.42;;;;;;;;;;5053416;28;20591;-62
2022/05/27 05:23:45;;;;;;;18.85;4.00;;;;;;;;;;5072448;28;20062;-62
2022/05/27 05:26:11;;;;;;;17.95;4.43;;;;;;;;;;5071902;28;20115;-62
2022/05/27 05:28:38;;;;;;;11.20;3.75;;;;;;;;;;5037119;28;20563;-63
2022/05/27 05:31:06;;;;;;;14.70;3.30;;;;;;;;;;5072296;28;20397;-63
2022/05/27 05:33:33;;;;;;;11.57;3.78;;;;;;;;;;5072048;28;20040;-63
2022/05/27 05:35:59;;;;;;;12.32;3.10;;;;;;;;;;5052966;28;20051;-63
2022/05/27 05:38:27;;;;;;;15.45;3.95;;;;;;;;;;5053917;28;20433;-63
2022/05/27 05:40:54;;;;;;;14.88;3.25;;;;;;;;;;5054049;28;20095;-63
2022/05/27 05:43:20;;;;;;;11.68;3.70;;;;;;;;;;5071203;28;20124;-63
2022/05/27 05:45:46;;;;;;;16.50;3.53;;;;;;;;;;5037887;28;20071;-63
2022/05/27 05:48:12;;;;;;;13.88;3.80;;;;;;;;;;5053238;28;20063;-63
2022/05/27 05:50:39;;;;;;;12.90;3.00;;;;;;;;;;5053445;28;20080;-63
2022/05/27 05:53:05;;;;;;;16.35;4.32;;;;;;;;;;5053983;28;20088;-63
2022/05/27 05:55:35;;;;;;;14.50;2.60;;;;;;;;;;5072083;28;20043;-64
2022/05/27 05:58:02;;;;;;;15.25;3.20;;;;;;;;;;5070873;28;20477;-64
2022/05/27 06:00:28;;;;;;;10.82;3.95;;;;;;;;;;5054123;28;20127;-64
2022/05/27 06:02:55;;;;;;;10.75;2.80;;;;;;;;;;5037124;28;20044;-64
2022/05/27 06:05:22;;;;;;;11.35;2.90;;;;;;;;;;5053211;28;20041;-62
2022/05/27 06:07:48;;;;;;;14.00;2.85;;;;;;;;;;5072165;28;20474;-63
2022/05/27 06:10:15;;;;;;;11.60;2.50;;;;;;;;;;5070970;28;20064;-62
2022/05/27 06:12:41;;;;;;;11.73;3.53;;;;;;;;;;5054207;28;20124;-62
2022/05/27 06:15:09;;;;;;;17.25;3.50;;;;;;;;;;5066747;28;20102;-62
2022/05/27 06:17:35;;;;;;;12.00;3.30;;;;;;;;;;5069827;28;20041;-62
2022/05/27 06:20:01;;;;;;;11.82;3.42;;;;;;;;;;5060498;28;20401;-65
2022/05/27 06:22:27;;;;;;;16.48;3.78;;;;;;;;;;5071463;28;20041;-65
2022/05/27 06:24:54;;;;;;;9.43;3.67;;;;;;;;;;5037329;28;20033;-66
2022/05/27 06:27:20;;;;;;;18.05;3.13;;;;;;;;;;5051590;28;20041;-66
2022/05/27 06:35:16;;;;;;;12.52;2.65;;;;;;;;;;5075395;28;20089;-66
2022/05/27 06:37:42;;;;;;;9.55;2.83;;;;;;;;;;5075596;28;20473;-66
2022/05/27 06:40:08;;;;;;;13.95;3.10;;;;;;;;;;5056107;28;20046;-66
2022/05/27 06:42:37;;;;;;;9.63;2.70;;;;;;;;;;5075310;28;20048;-66
2022/05/27 06:45:03;;;;;;;12.27;3.33;;;;;;;;;;5074848;28;20124;-66
2022/05/27 06:47:29;;;;;;;14.60;3.15;;;;;;;;;;5061554;28;20040;-65
2022/05/27 06:49:55;;;;;;;15.45;3.55;;;;;;;;;;5054552;28;20480;-65
2022/05/27 06:52:24;;;;;;;12.02;3.53;;;;;;;;;;5071215;28;20082;-63
2022/05/27 06:54:51;;;;;;;13.82;4.07;;;;;;;;;;5072542;28;20728;-63
2022/05/27 06:57:17;;;;;;;15.85;3.53;;;;;;;;;;5054486;28;20059;-65
2022/05/27 06:59:43;;;;;;;13.02;4.15;;;;;;;;;;5053366;28;20459;-65
2022/05/27 07:02:09;;;;;;;9.45;2.83;;;;;;;;;;5072363;28;20046;-65
2022/05/27 07:04:35;;;;;;;9.20;3.00;;;;;;;;;;5063640;28;20512;-64
2022/05/27 07:07:04;;;;;;;12.32;3.00;;;;;;;;;;5053426;28;20094;-64
2022/05/27 07:09:35;;;;;;;11.90;3.33;;;;;;;;;;5072203;28;20094;-64
2022/05/27 07:12:01;;;;;;;12.45;3.67;;;;;;;;;;5064563;28;20049;-63
2022/05/27 07:14:27;;;;;;;13.70;3.22;;;;;;;;;;5061563;28;20051;-63
2022/05/27 07:16:56;;;;;;;12.45;2.55;;;;;;;;;;5051553;28;20041;-64
2022/05/27 07:19:22;;;;;;;10.13;3.38;;;;;;;;;;5071516;28;20511;-64
2022/05/27 07:21:48;;;;;;;17.40;4.10;;;;;;;;;;5070938;28;20040;-64
2022/05/27 07:24:16;;;;;;;13.18;3.33;;;;;;;;;;5053422;28;20045;-63
2022/05/27 07:26:43;;;;;;;10.88;2.90;;;;;;;;;;5033063;28;20041;-64
2022/05/27 07:29:09;;;;;;;14.40;2.85;;;;;;;;;;5052908;28;20079;-63
2022/05/27 07:31:37;;;;;;;16.45;3.75;;;;;;;;;;5053639;28;20083;-63
2022/05/27 07:34:03;;;;;;;14.93;4.22;;;;;;;;;;5057673;28;20048;-63
2022/05/27 07:36:29;;;;;;;14.15;4.38;;;;;;;;;;5035808;28;20036;-64
2022/05/27 07:38:56;;;;;;;13.82;3.40;;;;;;;;;;5032749;28;20527;-64
2022/05/27 07:41:22;;;;;;;10.30;3.00;;;;;;;;;;5049778;28;20537;-63
2022/05/27 07:43:49;;;;;;;16.17;2.90;;;;;;;;;;5051837;28;20040;-63
2022/05/27 07:46:15;;;;;;;10.52;2.65;;;;;;;;;;5070502;28;20028;-65
2022/05/27 07:48:42;;;;;;;10.70;3.05;;;;;;;;;;5047922;28;20578;-65
2022/05/27 07:51:08;;;;;;;15.68;3.53;;;;;;;;;;5036230;28;20481;-65
2022/05/27 07:53:35;;;;;;;15.23;3.25;;;;;;;;;;5069053;28;20044;-64
2022/05/27 07:56:05;;;;;;;11.55;3.28;;;;;;;;;;5067398;28;20059;-62
2022/05/27 07:58:31;;;;;;;13.93;3.78;;;;;;;;;;5034729;28;20044;-63
2022/05/27 08:00:57;;;;;;;21.60;4.88;;;;;;;;;;5070444;28;20028;-63
2022/05/27 08:03:23;;;;;;;14.20;3.35;;;;;;;;;;5049481;28;20089;-63
2022/05/27 08:05:50;;;;;;;14.60;3.53;;;;;;;;;;5067832;28;20044;-63
2022/05/27 08:08:18;;;;;;;11.80;3.10;;;;;;;;;;5058764;28;20101;-62
2022/05/27 08:10:44;;;;;;;12.23;4.78;;;;;;;;;;5050308;28;20045;-63
2022/05/27 08:13:10;;;;;;;16.85;4.15;;;;;;;;;;5050536;28;20089;-63
2022/05/27 08:15:36;;;;;;;11.93;3.70;;;;;;;;;;5068473;28;20042;-63
2022/05/27 08:18:02;;;;;;;10.75;4.80;;;;;;;;;;5067528;28;20072;-63
2022/05/27 08:20:29;;;;;;;10.20;2.85;;;;;;;;;;5067490;28;20045;-63
2022/05/27 08:22:57;;;;;;;13.00;3.72;;;;;;;;;;5046694;28;20166;-64
2022/05/27 08:25:23;;;;;;;14.80;3.78;;;;;;;;;;5042763;28;20055;-64
2022/05/27 08:27:50;;;;;;;14.15;3.25;;;;;;;;;;5057207;28;20102;-64
2022/05/27 08:30:18;;;;;;;13.60;4.47;;;;;;;;;;5041065;28;20056;-63
2022/05/27 08:32:44;;;;;;;11.02;3.95;;;;;;;;;;5034930;28;20127;-64
2022/05/27 08:38:05;;;;;;;15.75;3.10;;;;;;;;;;5039776;28;20132;-65
2022/05/27 08:40:50;;;;;;;10.60;3.83;;;;;;;;;;5051705;28;20036;-65
2022/05/27 08:43:20;;;;;;;11.35;2.97;;;;;;;;;;5051922;28;20036;-63
2022/05/27 08:46:05;;;;;;;13.60;3.42;;;;;;;;;;5063126;28;20047;-62
2022/05/27 08:48:32;;;;;;;11.23;2.65;;;;;;;;;;5047804;28;20106;-65
2022/05/27 08:51:00;;;;;;;10.25;3.20;;;;;;;;;;5067773;28;20090;-65
2022/05/27 08:53:41;;;;;;;12.75;3.80;;;;;;;;;;5048582;28;20040;-63
2022/05/27 09:01:43;;;;;;;12.02;3.17;;;;;;;;;;5062937;28;20044;-63
2022/05/27 09:04:18;;;;;;;15.05;2.90;;;;;;;;;;5053456;28;20141;-63
2022/05/27 09:06:52;;;;;;;16.23;3.67;;;;;;;;;;5047809;28;20052;-64
2022/05/27 09:09:23;;;;;;;11.93;2.63;;;;;;;;;;5070452;28;20090;-63
2022/05/27 09:11:49;;;;;;;12.52;3.03;;;;;;;;;;5069668;28;20131;-62
2022/05/27 09:14:20;;;;;;;9.68;2.83;;;;;;;;;;5050961;28;20119;-62
2022/05/27 09:16:58;;;;;;;10.07;3.30;;;;;;;;;;5051804;28;20050;-62
2022/05/27 09:19:43;;;;;;;10.88;3.63;;;;;;;;;;5070210;28;20047;-64
2022/05/27 09:22:18;;;;;;;18.70;4.05;;;;;;;;;;5050776;28;20051;-62
2022/05/27 09:24:54;;;;;;;13.85;3.63;;;;;;;;;;5052531;28;20102;-62
2022/05/27 09:27:31;;;;;;;16.63;3.75;;;;;;;;;;5051397;28;20818;-62
2022/05/27 09:29:59;;;;;;;17.05;3.88;;;;;;;;;;5069031;28;20354;-62
2022/05/27 09:32:32;;;;;;;14.68;3.65;;;;;;;;;;5036657;28;20093;-62
2022/05/27 09:35:01;;;;;;;13.93;3.80;;;;;;;;;;5071491;28;20059;-62
2022/05/27 09:37:44;;;;;;;12.60;2.78;;;;;;;;;;5053875;28;20044;-61
2022/05/27 09:40:15;;;;;;;15.07;3.53;;;;;;;;;;5070789;28;20040;-64
2022/05/27 09:42:56;;;;;;;16.25;3.95;;;;;;;;;;5070864;28;20025;-68
2022/05/27 09:45:23;;;;;;;13.35;3.00;;;;;;;;;;5053828;28;20036;-68
2022/05/27 09:47:50;;;;;;;15.02;2.97;;;;;;;;;;5069873;28;20162;-66
2022/05/27 09:50:36;;;;;;;9.43;3.22;;;;;;;;;;5053356;28;20083;-75
2022/05/27 09:53:03;;;;;;;13.65;3.28;;;;;;;;;;5056353;28;20048;-73
2022/05/27 09:55:41;;;;;;;16.25;3.28;;;;;;;;;;5070554;28;20567;-73
2022/05/27 09:58:08;;;;;;;11.57;3.10;;;;;;;;;;5070948;28;20049;-72
2022/05/27 10:00:34;;;;;;;12.82;3.50;;;;;;;;;;5054275;28;20094;-77
2022/05/27 10:03:00;;;;;;;14.63;3.53;;;;;;;;;;5070788;28;20044;-76
2022/05/27 10:05:28;;;;;;;12.73;3.08;;;;;;;;;;5056060;28;20048;-76
2022/05/27 10:07:57;;;;;;;14.23;3.15;;;;;;;;;;5058225;28;20056;-75
2022/05/27 10:10:28;;;;;;;10.40;2.78;;;;;;;;;;5056898;28;20489;-75
2022/05/27 10:12:59;;;;;;;22.88;3.83;;;;;;;;;;5057951;28;20452;-73
2022/05/27 10:15:35;;;;;;;11.27;3.03;;;;;;;;;;5057651;28;20048;-74
2022/05/27 10:18:20;;;;;;;12.65;3.08;;;;;;;;;;5075125;28;20048;-73
2022/05/27 10:21:13;;;;;;;16.02;3.55;;;;;;;;;;5057960;28;20076;-71
2022/05/27 10:23:41;;;;;;;9.98;3.83;;;;;;;;;;5053305;28;20048;-72
2022/05/27 10:26:24;;;;;;;10.05;3.13;;;;;;;;;;5075428;28;20040;-72
2022/05/27 10:28:56;;;;;;;19.15;3.40;;;;;;;;;;5075542;28;20396;-73
2022/05/27 10:31:24;;;;;;;14.88;4.32;;;;;;;;;;5056994;28;20048;-72
2022/05/27 10:33:50;;;;;;;12.43;2.90;;;;;;;;;;5057457;28;20084;-69
2022/05/27 10:36:22;;;;;;;11.45;3.88;;;;;;;;;;5075276;28;20076;-70
2022/05/27 10:39:11;;;;;;;11.10;3.35;;;;;;;;;;5056760;28;20052;-70
2022/05/27 10:41:44;;;;;;;12.77;3.53;;;;;;;;;;5012437;28;20146;-74
2022/05/27 10:44:34;;;;;;;16.00;3.28;;;;;;;;;;5057116;28;20048;-71
2022/05/27 10:47:00;;;;;;;14.18;3.65;;;;;;;;;;5044952;28;20052;-69
2022/05/27 10:49:29;;;;;;;19.17;3.88;;;;;;;;;;5057123;28;20071;-69
2022/05/27 10:51:55;;;;;;;11.50;2.90;;;;;;;;;;5056076;28;20044;-71
2022/05/27 10:54:26;;;;;;;16.27;3.97;;;;;;;;;;5040538;28;20059;-75
2022/05/27 11:02:44;;;;;;;15.57;3.88;;;;;;;;;;5057156;28;20059;-74
2022/05/27 11:05:35;;;;;;;14.02;2.90;;;;;;;;;;5074449;28;20041;-74
2022/05/27 11:08:01;;;;;;;14.98;3.65;;;;;;;;;;5074793;28;20037;-74
2022/05/27 11:10:39;;;;;;;12.27;3.28;;;;;;;;;;5074645;28;20038;-72
2022/05/27 11:15:55;;;;;;;19.02;3.75;;;;;;;;;;5073231;28;20040;-72
2022/05/27 11:18:22;;;;;;;13.43;3.47;;;;;;;;;;5070065;28;20070;-73
2022/05/27 11:20:57;;;;;;;15.23;3.33;;;;;;;;;;5054017;28;20082;-70
2022/05/27 11:23:30;;;;;;;13.40;4.75;;;;;;;;;;5053351;28;20044;-69
2022/05/27 11:26:08;;;;;;;12.73;2.88;;;;;;;;;;5039565;28;20049;-73
2022/05/27 11:28:40;;;;;;;11.20;3.17;;;;;;;;;;5059734;28;20040;-70
2022/05/27 11:31:09;;;;;;;10.73;3.35;;;;;;;;;;5051181;28;20464;-70
2022/05/27 11:33:54;;;;;;;10.07;2.80;;;;;;;;;;5053024;28;20512;-73
2022/05/27 11:36:23;;;;;;;9.93;3.30;;;;;;;;;;5050880;28;20520;-73
2022/05/27 11:38:49;;;;;;;19.50;3.40;;;;;;;;;;5061011;28;20052;-72
2022/05/27 11:41:21;;;;;;;15.68;3.85;;;;;;;;;;5056486;28;20467;-72
2022/05/27 11:43:48;;;;;;;10.40;3.03;;;;;;;;;;5052257;28;20769;-71
2022/05/27 11:46:33;;;;;;;11.55;3.08;;;;;;;;;;5035200;28;20040;-73
2022/05/27 11:49:11;;;;;;;14.18;2.75;;;;;;;;;;5069799;28;20576;-73
2022/05/27 11:51:44;;;;;;;19.55;3.47;;;;;;;;;;5036810;28;20090;-75
2022/05/27 11:54:11;;;;;;;12.32;3.72;;;;;;;;;;5052424;28;20102;-73
2022/05/27 11:56:45;;;;;;;15.10;3.45;;;;;;;;;;5070488;28;20134;-72
2022/05/27 11:59:11;;;;;;;11.48;3.10;;;;;;;;;;5051922;28;20168;-73
2022/05/27 12:01:50;;;;;;;8.35;3.10;;;;;;;;;;5053145;28;20091;-72
2022/05/27 12:04:48;;;;;;;10.63;2.80;;;;;;;;;;5071028;28;20028;-72
2022/05/27 12:07:34;;;;;;;10.45;2.70;;;;;;;;;;4985136;28;20064;-74
2022/05/27 12:10:14;;;;;;;12.45;2.90;;;;;;;;;;5048687;28;20056;-71
2022/05/27 12:12:44;;;;;;;12.95;4.05;;;;;;;;;;5053024;28;20045;-73
2022/05/27 12:15:16;;;;;;;15.27;3.50;;;;;;;;;;5069949;28;20121;-74
2022/05/27 12:17:50;;;;;;;8.52;2.90;;;;;;;;;;5069955;28;20064;-74
2022/05/27 12:20:18;;;;;;;13.05;2.83;;;;;;;;;;5067486;28;20044;-73
2022/05/27 12:22:45;;;;;;;10.82;2.85;;;;;;;;;;5059968;28;20041;-72
2022/05/27 12:25:26;;;;;;;10.25;3.58;;;;;;;;;;5042471;28;20055;-70
2022/05/27 12:27:56;;;;;;;12.73;2.80;;;;;;;;;;5058866;28;20048;-72
2022/05/27 12:30:31;;;;;;;12.23;2.90;;;;;;;;;;5069636;28;20124;-72
2022/05/27 12:32:57;;;;;;;14.75;3.67;;;;;;;;;;5040284;28;20047;-71
2022/05/27 12:35:28;;;;;;;11.40;3.25;;;;;;;;;;5063956;28;20043;-72
2022/05/27 12:37:57;;;;;;;12.75;3.45;;;;;;;;;;5051409;28;20648;-73
2022/05/27 12:40:30;;;;;;;9.88;2.78;;;;;;;;;;5059847;28;20047;-71
2022/05/27 12:42:59;;;;;;;11.65;3.13;;;;;;;;;;5068442;28;20051;-72
2022/05/27 12:45:25;;;;;;;11.57;2.83;;;;;;;;;;5065427;28;20036;-72
2022/05/27 12:47:53;;;;;;;13.60;3.88;;;;;;;;;;5061733;28;20485;-71
2022/05/27 12:50:25;;;;;;;22.30;3.67;;;;;;;;;;5051442;28;20056;-72
2022/05/27 12:52:52;;;;;;;12.68;3.33;;;;;;;;;;5069735;28;20044;-72
2022/05/27 13:01:30;;;;;;;17.50;2.80;;;;;;;;;;5051044;28;20051;-72
2022/05/27 13:04:06;;;;;;;11.52;3.15;;;;;;;;;;5051597;28;20040;-71
2022/05/27 13:06:32;;;;;;;17.38;4.40;;;;;;;;;;5069319;28;20040;-72
2022/05/27 13:09:00;;;;;;;12.63;3.08;;;;;;;;;;5069795;28;20311;-70
2022/05/27 13:11:38;;;;;;;16.67;3.92;;;;;;;;;;5050999;28;20123;-71
2022/05/27 13:14:05;;;;;;;12.27;3.92;;;;;;;;;;5033254;28;20040;-70
2022/05/27 13:16:49;;;;;;;8.90;2.67;;;;;;;;;;5069605;28;20390;-70
2022/05/27 13:19:32;;;;;;;11.57;3.25;;;;;;;;;;5069405;28;20486;-72
2022/05/27 13:22:05;;;;;;;12.32;3.83;;;;;;;;;;5064249;28;20049;-71
2022/05/27 13:24:36;;;;;;;15.40;4.30;;;;;;;;;;5067264;28;20052;-72
2022/05/27 13:27:21;;;;;;;15.85;3.38;;;;;;;;;;5046494;28;20041;-73
2022/05/27 13:29:53;;;;;;;17.58;3.33;;;;;;;;;;5050795;28;20041;-71
2022/05/27 13:32:26;;;;;;;13.10;4.00;;;;;;;;;;5050479;28;20043;-72
2022/05/27 13:34:57;;;;;;;12.43;3.67;;;;;;;;;;5051616;28;20052;-73
2022/05/27 13:37:50;;;;;;;11.98;3.42;;;;;;;;;;5063164;28;20040;-72
2022/05/27 13:40:22;;;;;;;16.27;3.30;;;;;;;;;;5045409;28;20052;-74
2022/05/27 13:42:49;;;;;;;14.90;3.28;;;;;;;;;;5048621;28;20494;-73
2022/05/27 13:45:24;;;;;;;11.95;3.20;;;;;;;;;;5051510;28;20370;-74
2022/05/27 13:48:04;;;;;;;12.35;2.58;;;;;;;;;;5031078;28;20064;-75
2022/05/27 13:50:30;;;;;;;10.15;3.70;;;;;;;;;;5048633;28;20053;-74
2022/05/27 13:52:56;;;;;;;13.68;3.08;;;;;;;;;;5050862;28;20097;-74
2022/05/27 13:55:29;;;;;;;13.52;3.08;;;;;;;;;;5066817;28;20466;-73
2022/05/27 13:58:00;;;;;;;13.50;3.13;;;;;;;;;;5051493;28;20052;-73
2022/05/27 14:00:31;;;;;;;18.30;3.70;;;;;;;;;;5069776;28;20070;-74
2022/05/27 14:02:58;;;;;;;11.82;4.15;;;;;;;;;;5069508;28;20029;-72
2022/05/27 14:05:29;;;;;;;13.00;3.38;;;;;;;;;;5051105;28;20055;-73
2022/05/27 14:07:57;;;;;;;11.77;3.53;;;;;;;;;;5069155;28;20087;-72
2022/05/27 14:10:25;;;;;;;14.55;3.55;;;;;;;;;;5041592;28;20087;-73
2022/05/27 14:12:51;;;;;;;11.85;2.97;;;;;;;;;;5044875;28;20117;-73
2022/05/27 14:15:28;;;;;;;11.45;3.22;;;;;;;;;;5050180;28;20048;-74
2022/05/27 14:17:54;;;;;;;10.50;2.92;;;;;;;;;;5034079;28;20473;-73
2022/05/27 14:20:23;;;;;;;13.13;3.47;;;;;;;;;;5060483;28;20059;-74
2022/05/27 14:22:51;;;;;;;13.55;3.25;;;;;;;;;;5049002;28;20119;-75
2022/05/27 14:25:29;;;;;;;15.65;3.92;;;;;;;;;;5067636;28;20111;-75
2022/05/27 14:27:57;;;;;;;18.77;3.58;;;;;;;;;;5054872;28;20075;-72
2022/05/27 14:30:24;;;;;;;13.32;3.33;;;;;;;;;;5052073;28;20446;-72
2022/05/27 14:32:50;;;;;;;11.05;3.42;;;;;;;;;;5049973;28;20048;-75
2022/05/27 14:35:21;;;;;;;13.82;3.40;;;;;;;;;;5051915;28;20528;-71
2022/05/27 14:37:56;;;;;;;9.93;2.83;;;;;;;;;;5050431;28;20150;-72
2022/05/27 14:40:25;;;;;;;12.18;2.97;;;;;;;;;;5051713;28;20050;-72
2022/05/27 14:42:51;;;;;;;14.75;2.78;;;;;;;;;;5050552;28;20047;-73
2022/05/27 14:45:30;;;;;;;16.08;3.33;;;;;;;;;;5050386;28;20041;-73
2022/05/27 14:47:56;;;;;;;11.68;3.97;;;;;;;;;;5051841;28;20131;-73
2022/05/27 14:50:23;;;;;;;10.60;2.55;;;;;;;;;;5039811;28;20131;-72
2022/05/27 14:52:56;;;;;;;8.63;2.60;;;;;;;;;;5032218;28;20137;-71
2022/05/27 14:55:24;;;;;;;17.05;3.78;;;;;;;;;;4997188;28;20561;-72
2022/05/27 14:57:55;;;;;;;9.65;3.08;;;;;;;;;;5038166;28;20041;-73
2022/05/27 15:00:30;;;;;;;9.50;2.72;;;;;;;;;;5046122;28;20045;-72
2022/05/27 15:02:57;;;;;;;12.00;2.80;;;;;;;;;;5034205;28;20348;-73
2022/05/27 15:05:23;;;;;;;12.50;3.20;;;;;;;;;;5016084;28;20033;-72
2022/05/27 15:08:01;;;;;;;12.70;2.90;;;;;;;;;;5033123;28;20052;-72
2022/05/27 15:10:32;;;;;;;8.88;2.90;;;;;;;;;;5031222;28;20110;-73
2022/05/27 15:12:58;;;;;;;12.60;3.15;;;;;;;;;;5031260;28;20175;-73
2022/05/27 15:15:28;;;;;;;21.95;8.48;;;;;;;;;;5032916;28;20065;-73